Time;durP1;ratioP1;P1;durP2;ratioP2;P2;SDS_P1;SDS_P2;PMS_P1;PMS_P2;Temp;Humidity;BMP_temperature;BMP_pressure;BME280_temperature;BME280_humidity;BME280_pressure;Samples;Min_cycle;Max_cycle;Signal;HPM_P1;HPM_P2
2023/05/17 00:01:47;;;;;;;12.25;4.10;;;9.20;99.90;;;;;;5087308;28;20062;-78
2023/05/17 00:04:13;;;;;;;11.20;4.18;;;9.20;99.90;;;;;;5070261;28;20047;-78
2023/05/17 00:06:39;;;;;;;15.60;4.28;;;9.20;99.90;;;;;;5087741;28;20048;-78
2023/05/17 00:09:05;;;;;;;14.02;4.45;;;9.20;99.90;;;;;;5069166;28;20056;-78
2023/05/17 00:11:31;;;;;;;12.23;4.28;;;9.30;99.90;;;;;;5069591;28;20725;-78
2023/05/17 00:13:56;;;;;;;12.23;3.80;;;9.30;99.90;;;;;;5087360;28;20040;-78
2023/05/17 00:16:22;;;;;;;7.90;3.45;;;9.30;99.90;;;;;;5087086;28;20044;-78
2023/05/17 00:18:47;;;;;;;13.43;3.38;;;9.20;99.90;;;;;;5069736;28;20406;-78
2023/05/17 00:21:13;;;;;;;11.50;3.03;;;9.20;99.90;;;;;;5084700;28;20048;-78
2023/05/17 00:23:38;;;;;;;11.13;2.72;;;9.20;99.90;;;;;;5087639;28;20382;-78
2023/05/17 00:26:04;;;;;;;10.38;3.80;;;9.10;99.90;;;;;;5069293;28;20081;-78
2023/05/17 00:28:29;;;;;;;14.52;3.40;;;9.10;99.90;;;;;;5087847;28;20040;-78
2023/05/17 00:30:55;;;;;;;12.63;3.03;;;9.00;99.90;;;;;;5051736;28;20148;-78
2023/05/17 00:33:21;;;;;;;10.25;2.83;;;9.00;99.90;;;;;;5068653;28;20105;-78
2023/05/17 00:35:46;;;;;;;12.50;2.72;;;8.90;99.90;;;;;;5087261;28;20573;-78
2023/05/17 00:38:12;;;;;;;9.63;3.17;;;8.90;99.90;;;;;;5086021;28;20052;-78
2023/05/17 00:40:37;;;;;;;14.30;2.92;;;8.80;99.90;;;;;;5087245;28;20036;-78
2023/05/17 00:43:03;;;;;;;11.18;3.10;;;8.80;99.90;;;;;;5052885;28;20137;-78
2023/05/17 00:45:31;;;;;;;8.15;2.80;;;8.80;99.90;;;;;;5086359;28;20512;-78
2023/05/17 00:47:56;;;;;;;12.10;3.45;;;8.60;99.90;;;;;;5068758;28;20172;-78
2023/05/17 00:50:22;;;;;;;18.20;3.15;;;8.60;99.90;;;;;;5087342;28;20040;-78
2023/05/17 00:52:48;;;;;;;12.40;2.63;;;8.60;99.90;;;;;;5053832;28;20178;-78
2023/05/17 00:55:14;;;;;;;13.13;3.28;;;8.50;99.90;;;;;;5082034;28;20058;-78
2023/05/17 00:57:39;;;;;;;16.83;4.15;;;8.40;99.90;;;;;;5086818;28;20136;-78
2023/05/17 01:00:06;;;;;;;12.85;2.63;;;8.40;99.90;;;;;;5087298;28;20028;-78
2023/05/17 01:02:31;;;;;;;14.60;3.35;;;8.30;99.90;;;;;;5085379;28;20504;-78
2023/05/17 01:04:57;;;;;;;14.18;3.15;;;8.30;99.90;;;;;;5086859;28;20048;-78
2023/05/17 01:07:23;;;;;;;16.02;2.85;;;8.20;99.90;;;;;;5085943;28;20123;-78
2023/05/17 01:09:49;;;;;;;16.77;3.80;;;8.20;99.90;;;;;;5087063;28;20366;-78
2023/05/17 01:12:45;;;;;;;13.40;3.22;;;8.20;99.90;;;;;;5091791;28;20039;-78
2023/05/17 01:15:37;;;;;;;15.93;3.10;;;8.20;99.90;;;;;;5091512;28;20040;-78
2023/05/17 01:18:40;;;;;;;17.30;3.30;;;8.20;99.90;;;;;;5088948;28;20151;-78
2023/05/17 01:21:21;;;;;;;15.68;3.25;;;8.20;99.90;;;;;;5058805;28;20482;-78
2023/05/17 01:24:21;;;;;;;12.50;3.30;;;8.20;99.90;;;;;;5089816;28;20046;-78
2023/05/17 01:26:49;;;;;;;12.52;2.80;;;8.00;99.90;;;;;;5069104;28;20506;-78
2023/05/17 01:29:17;;;;;;;9.38;2.65;;;8.00;99.90;;;;;;5053760;28;20199;-78
2023/05/17 01:31:44;;;;;;;14.25;2.90;;;8.00;99.90;;;;;;5056473;28;20055;-78
2023/05/17 01:34:10;;;;;;;10.25;3.38;;;8.00;99.90;;;;;;5089119;28;20056;-78
2023/05/17 01:36:36;;;;;;;13.45;2.65;;;8.00;99.90;;;;;;5072156;28;20055;-78
2023/05/17 01:39:02;;;;;;;13.52;4.03;;;7.90;99.90;;;;;;5091326;28;20036;-78
2023/05/17 01:41:39;;;;;;;13.30;3.47;;;7.90;99.90;;;;;;5055056;28;20044;-78
2023/05/17 01:44:05;;;;;;;10.27;2.72;;;7.90;99.90;;;;;;5071986;28;20055;-78
2023/05/17 01:46:39;;;;;;;15.38;4.15;;;7.90;99.90;;;;;;5072327;28;20044;-78
2023/05/17 01:49:15;;;;;;;12.73;2.50;;;7.90;99.90;;;;;;5089034;28;20441;-79
2023/05/17 01:52:17;;;;;;;14.13;3.05;;;7.90;99.90;;;;;;5068666;28;20553;-78
2023/05/17 01:54:49;;;;;;;15.27;3.25;;;7.80;99.90;;;;;;5009536;28;20048;-78
2023/05/17 01:57:18;;;;;;;10.98;2.97;;;7.80;99.90;;;;;;5071675;28;20139;-78
2023/05/17 01:59:46;;;;;;;13.05;3.33;;;7.80;99.90;;;;;;5055225;28;20047;-78
2023/05/17 02:02:12;;;;;;;15.15;3.50;;;7.70;99.90;;;;;;5089252;28;20036;-78
2023/05/17 02:04:38;;;;;;;11.10;2.45;;;7.70;99.90;;;;;;5055090;28;20052;-78
2023/05/17 02:07:04;;;;;;;14.68;3.25;;;7.60;99.90;;;;;;5089542;28;20047;-78
2023/05/17 02:09:29;;;;;;;13.63;3.38;;;7.60;99.90;;;;;;5090071;28;20050;-78
2023/05/17 02:11:55;;;;;;;12.27;2.75;;;7.60;99.90;;;;;;5087686;28;20071;-78
2023/05/17 02:14:21;;;;;;;14.55;3.25;;;7.60;99.90;;;;;;5070819;28;20076;-78
2023/05/17 02:16:47;;;;;;;11.80;2.95;;;7.60;99.90;;;;;;5090403;28;20228;-78
2023/05/17 02:19:13;;;;;;;9.02;3.28;;;7.70;99.90;;;;;;5088964;28;20052;-78
2023/05/17 02:21:38;;;;;;;14.80;3.22;;;7.70;99.90;;;;;;5053693;28;20989;-78
2023/05/17 02:24:04;;;;;;;14.93;3.85;;;7.70;99.90;;;;;;5071067;28;20040;-78
2023/05/17 02:26:30;;;;;;;14.82;3.40;;;7.70;99.90;;;;;;5088866;28;20713;-78
2023/05/17 02:28:56;;;;;;;14.90;3.47;;;7.70;99.90;;;;;;5089420;28;20040;-78
2023/05/17 02:31:25;;;;;;;13.40;3.75;;;7.60;99.90;;;;;;5071191;28;20047;-78
2023/05/17 02:33:54;;;;;;;13.73;3.50;;;7.60;99.90;;;;;;5086895;28;20502;-78
2023/05/17 02:36:20;;;;;;;14.55;3.17;;;7.50;99.90;;;;;;5052477;28;20441;-78
2023/05/17 02:38:45;;;;;;;13.30;3.22;;;7.50;99.90;;;;;;5084147;28;20119;-78
2023/05/17 02:41:11;;;;;;;9.32;3.03;;;7.50;99.90;;;;;;5070476;28;20169;-78
2023/05/17 02:43:37;;;;;;;11.68;3.17;;;7.70;99.90;;;;;;5089647;28;20055;-78
2023/05/17 02:46:04;;;;;;;10.15;2.97;;;7.40;99.90;;;;;;5070999;28;20040;-78
2023/05/17 02:48:29;;;;;;;9.52;2.83;;;7.40;99.90;;;;;;5087833;28;20052;-78
2023/05/17 02:50:55;;;;;;;17.27;3.97;;;7.30;99.90;;;;;;5069363;28;20345;-78
2023/05/17 02:53:20;;;;;;;17.02;3.53;;;7.30;99.90;;;;;;5068861;28;20146;-78
2023/05/17 02:55:46;;;;;;;13.40;3.30;;;7.30;99.90;;;;;;5069554;28;20052;-78
2023/05/17 02:58:12;;;;;;;13.05;3.55;;;7.20;99.90;;;;;;5089092;28;20119;-78
2023/05/17 03:00:37;;;;;;;9.27;3.08;;;7.20;99.90;;;;;;5088909;28;20482;-78
2023/05/17 03:03:03;;;;;;;12.32;2.90;;;7.10;99.90;;;;;;5088784;28;20085;-78
2023/05/17 03:05:28;;;;;;;13.82;3.10;;;7.10;99.90;;;;;;5088767;28;20447;-78
2023/05/17 03:07:54;;;;;;;14.73;2.85;;;7.10;99.90;;;;;;5069306;28;20487;-78
2023/05/17 03:10:20;;;;;;;12.93;3.00;;;7.00;99.90;;;;;;5070418;28;20120;-78
2023/05/17 03:12:45;;;;;;;10.98;2.95;;;7.00;99.90;;;;;;5087983;28;20036;-78
2023/05/17 03:15:11;;;;;;;18.50;3.70;;;7.00;99.90;;;;;;5087952;28;20071;-78
2023/05/17 03:17:37;;;;;;;19.13;3.60;;;7.00;99.90;;;;;;5089791;28;20051;-78
2023/05/17 03:20:03;;;;;;;17.05;3.35;;;6.90;99.90;;;;;;5089197;28;20046;-79
2023/05/17 03:22:28;;;;;;;14.80;3.13;;;6.90;99.90;;;;;;5086963;28;20134;-78
2023/05/17 03:24:54;;;;;;;14.02;3.15;;;6.90;99.90;;;;;;5052433;28;20047;-78
2023/05/17 03:27:19;;;;;;;11.77;3.75;;;6.90;99.90;;;;;;5088527;28;20733;-78
2023/05/17 03:29:45;;;;;;;15.57;3.00;;;6.80;99.90;;;;;;5070578;28;20456;-78
2023/05/17 03:32:11;;;;;;;11.95;3.00;;;6.90;99.90;;;;;;5088743;28;20040;-79
2023/05/17 03:34:36;;;;;;;17.45;4.50;;;6.90;99.90;;;;;;5087251;28;20094;-78
2023/05/17 03:37:02;;;;;;;13.32;3.15;;;7.00;99.90;;;;;;5088467;28;20139;-78
2023/05/17 03:39:27;;;;;;;10.57;3.08;;;7.00;99.90;;;;;;5087386;28;20047;-78
2023/05/17 03:41:53;;;;;;;11.98;3.13;;;7.00;99.90;;;;;;5087077;28;20491;-78
2023/05/17 03:44:19;;;;;;;16.92;3.45;;;7.10;99.90;;;;;;5087440;28;20044;-78
2023/05/17 03:46:45;;;;;;;11.88;3.10;;;7.20;99.90;;;;;;5088353;28;20410;-78
2023/05/17 03:49:13;;;;;;;11.93;2.80;;;7.30;99.90;;;;;;5086138;28;20495;-81
2023/05/17 03:51:39;;;;;;;11.52;2.92;;;7.30;99.90;;;;;;5088166;28;20067;-79
2023/05/17 03:54:05;;;;;;;9.95;2.90;;;7.30;99.90;;;;;;5052574;28;20041;-78
2023/05/17 03:56:31;;;;;;;14.13;2.80;;;7.40;99.90;;;;;;5069401;28;20083;-78
2023/05/17 03:58:56;;;;;;;9.48;2.90;;;7.40;99.90;;;;;;5054912;28;20147;-79
2023/05/17 04:01:22;;;;;;;11.80;2.50;;;7.40;99.90;;;;;;5087697;28;20497;-79
2023/05/17 04:03:48;;;;;;;11.20;2.70;;;7.30;99.90;;;;;;5087332;28;20039;-78
2023/05/17 04:06:13;;;;;;;16.05;3.20;;;7.50;99.90;;;;;;5071158;28;20044;-78
2023/05/17 04:08:39;;;;;;;10.85;3.10;;;7.50;99.90;;;;;;5083098;28;20519;-78
2023/05/17 04:11:12;;;;;;;9.38;2.80;;;7.50;99.90;;;;;;5087644;28;20477;-79
2023/05/17 04:13:40;;;;;;;12.82;2.65;;;7.50;99.90;;;;;;5087709;28;20101;-78
2023/05/17 04:16:07;;;;;;;14.63;3.28;;;7.50;99.90;;;;;;5037044;28;20040;-79
2023/05/17 04:18:37;;;;;;;13.10;2.78;;;7.50;99.90;;;;;;5070197;28;20048;-78
2023/05/17 04:21:03;;;;;;;13.05;2.85;;;7.50;99.90;;;;;;5071574;28;20033;-79
2023/05/17 04:23:29;;;;;;;13.07;2.70;;;7.50;99.90;;;;;;5083684;28;20177;-79
2023/05/17 04:25:57;;;;;;;12.18;2.78;;;7.50;99.90;;;;;;5086880;28;20067;-79
2023/05/17 04:28:23;;;;;;;8.90;2.63;;;7.60;99.90;;;;;;5086697;28;20143;-79
2023/05/17 04:30:49;;;;;;;11.05;2.30;;;7.60;99.90;;;;;;5084933;28;20502;-79
2023/05/17 04:33:15;;;;;;;12.45;3.15;;;7.70;99.90;;;;;;5086936;28;20090;-79
2023/05/17 04:35:41;;;;;;;15.68;2.75;;;7.80;99.90;;;;;;5085118;28;20072;-79
2023/05/17 04:38:08;;;;;;;12.23;2.63;;;7.80;99.90;;;;;;5082333;28;20156;-78
2023/05/17 04:40:35;;;;;;;12.30;2.92;;;7.90;99.90;;;;;;5084945;28;20536;-78
2023/05/17 04:43:01;;;;;;;8.48;2.20;;;7.90;99.90;;;;;;5086922;28;20414;-79
2023/05/17 04:45:30;;;;;;;9.10;2.78;;;7.90;99.90;;;;;;5069314;28;20394;-80
2023/05/17 04:47:55;;;;;;;10.05;2.67;;;8.00;99.90;;;;;;5080922;28;20386;-80
2023/05/17 04:50:21;;;;;;;12.15;2.67;;;8.10;99.90;;;;;;5099952;28;20052;-80
2023/05/17 04:52:47;;;;;;;9.52;2.63;;;8.00;99.90;;;;;;5090402;28;20055;-80
2023/05/17 04:55:12;;;;;;;8.73;2.55;;;8.10;99.90;;;;;;5087034;28;20058;-80
2023/05/17 04:57:38;;;;;;;8.38;2.20;;;8.10;99.90;;;;;;5046190;28;20040;-81
2023/05/17 05:00:11;;;;;;;8.57;2.08;;;8.20;99.90;;;;;;5085018;28;20113;-80
2023/05/17 05:02:37;;;;;;;7.80;1.70;;;8.30;99.90;;;;;;5073592;28;20063;-80
2023/05/17 05:05:03;;;;;;;4.95;1.83;;;8.30;99.90;;;;;;5068426;28;20104;-79
2023/05/17 05:07:30;;;;;;;9.63;2.10;;;8.40;99.90;;;;;;5069436;28;20101;-80
2023/05/17 05:09:56;;;;;;;7.40;1.88;;;8.60;99.90;;;;;;5087876;28;20452;-80
2023/05/17 05:12:21;;;;;;;8.20;2.15;;;8.70;99.90;;;;;;5086900;28;20040;-80
2023/05/17 05:14:47;;;;;;;9.45;1.88;;;8.80;99.90;;;;;;5087837;28;20044;-80
2023/05/17 05:17:12;;;;;;;5.03;1.60;;;9.00;99.90;;;;;;5087903;28;20086;-80
2023/05/17 05:19:38;;;;;;;4.45;1.67;;;9.20;99.90;;;;;;5086881;28;20066;-81
2023/05/17 05:22:04;;;;;;;9.00;1.80;;;9.40;99.90;;;;;;5068091;28;20040;-81
2023/05/17 05:24:29;;;;;;;5.10;1.75;;;9.60;99.90;;;;;;5086458;28;20127;-80
2023/05/17 05:26:55;;;;;;;7.32;1.60;;;9.70;99.90;;;;;;5086952;28;20032;-80
2023/05/17 05:29:20;;;;;;;6.07;1.60;;;9.80;99.90;;;;;;5082193;28;20044;-80
2023/05/17 05:31:46;;;;;;;4.40;1.67;;;10.00;99.90;;;;;;5068480;28;20036;-81
2023/05/17 05:34:11;;;;;;;7.13;1.40;;;10.80;99.90;;;;;;5068772;28;20725;-81
2023/05/17 05:36:37;;;;;;;7.63;1.60;;;12.00;99.90;;;;;;5085355;28;20044;-81
2023/05/17 05:39:03;;;;;;;6.90;1.48;;;12.40;99.90;;;;;;5083819;28;20434;-81
2023/05/17 05:41:28;;;;;;;6.10;1.77;;;12.10;99.90;;;;;;5050125;28;20059;-82
2023/05/17 05:43:54;;;;;;;10.55;1.98;;;12.00;99.90;;;;;;5069329;28;20048;-82
2023/05/17 05:46:22;;;;;;;6.55;1.70;;;11.90;99.90;;;;;;5068807;28;20128;-81
2023/05/17 05:48:48;;;;;;;3.45;1.17;;;11.50;99.90;;;;;;5086391;28;20055;-82
2023/05/17 05:51:13;;;;;;;7.88;1.60;;;11.20;99.90;;;;;;5086769;28;20040;-81
2023/05/17 05:53:39;;;;;;;5.03;1.27;;;10.90;99.90;;;;;;5067647;28;20449;-82
2023/05/17 05:56:05;;;;;;;4.38;1.25;;;10.70;99.90;;;;;;5069464;28;20093;-81
2023/05/17 05:58:31;;;;;;;4.35;1.42;;;11.50;99.90;;;;;;5090603;28;20036;-81
2023/05/17 06:00:57;;;;;;;4.85;1.40;;;12.70;99.90;;;;;;5072129;28;20126;-81
2023/05/17 06:03:23;;;;;;;7.63;2.35;;;13.80;99.90;;;;;;5090112;28;20113;-81
2023/05/17 06:05:49;;;;;;;4.80;1.42;;;14.60;96.40;;;;;;5056115;28;20149;-82
2023/05/17 06:08:14;;;;;;;6.47;1.10;;;15.30;93.50;;;;;;5088924;28;20491;-81
2023/05/17 06:10:40;;;;;;;4.35;1.05;;;14.80;91.90;;;;;;5071997;28;20047;-81
2023/05/17 06:13:06;;;;;;;6.00;1.50;;;14.70;92.10;;;;;;5089440;28;20043;-81
2023/05/17 06:15:31;;;;;;;9.00;1.10;;;14.90;90.90;;;;;;5090399;28;20089;-81
2023/05/17 06:17:57;;;;;;;5.72;1.55;;;14.50;90.80;;;;;;5090535;28;20069;-81
2023/05/17 06:20:22;;;;;;;8.85;1.50;;;13.90;90.90;;;;;;5090479;28;20040;-81
2023/05/17 06:22:48;;;;;;;7.90;1.33;;;13.40;91.80;;;;;;5090348;28;20841;-83
2023/05/17 06:25:14;;;;;;;5.80;1.40;;;12.70;91.80;;;;;;5072062;28;20056;-82
2023/05/17 06:27:39;;;;;;;4.70;1.20;;;12.40;93.20;;;;;;5090101;28;20085;-82
2023/05/17 06:30:06;;;;;;;5.50;1.45;;;12.10;93.60;;;;;;5090172;28;20094;-82
2023/05/17 06:32:32;;;;;;;6.10;1.92;;;12.00;93.90;;;;;;5090406;28;20079;-82
2023/05/17 06:34:57;;;;;;;3.55;1.10;;;11.80;93.30;;;;;;5089407;28;20071;-82
2023/05/17 06:37:23;;;;;;;5.03;1.40;;;11.70;93.80;;;;;;5090038;28;20047;-82
2023/05/17 06:39:52;;;;;;;4.38;2.08;;;11.70;93.60;;;;;;5071276;28;20098;-82
2023/05/17 06:42:17;;;;;;;4.78;1.00;;;11.60;92.70;;;;;;5054722;28;20040;-82
2023/05/17 06:44:43;;;;;;;6.97;2.08;;;11.50;93.00;;;;;;5089894;28;20044;-82
2023/05/17 06:47:09;;;;;;;5.55;1.42;;;11.40;93.00;;;;;;5090091;28;20138;-83
2023/05/17 06:49:37;;;;;;;6.22;1.45;;;11.30;92.90;;;;;;5071672;28;20054;-83
2023/05/17 06:52:04;;;;;;;7.35;1.55;;;11.20;93.20;;;;;;5071189;28;20052;-82
2023/05/17 06:54:30;;;;;;;8.60;1.55;;;11.30;93.10;;;;;;5089646;28;20048;-82
2023/05/17 06:57:01;;;;;;;5.95;1.40;;;11.40;93.20;;;;;;5070240;28;20143;-82
2023/05/17 06:59:26;;;;;;;5.75;1.35;;;11.30;91.40;;;;;;5088578;28;20430;-82
2023/05/17 07:01:52;;;;;;;7.47;1.63;;;11.10;90.90;;;;;;5078780;28;20044;-82
2023/05/17 07:04:18;;;;;;;7.47;1.98;;;11.10;91.90;;;;;;5088318;28;20046;-82
2023/05/17 07:06:43;;;;;;;8.48;1.70;;;11.30;92.30;;;;;;5069801;28;20127;-82
2023/05/17 07:09:09;;;;;;;4.75;1.60;;;11.50;91.90;;;;;;5068954;28;20075;-83
2023/05/17 07:11:35;;;;;;;5.88;1.67;;;11.60;89.80;;;;;;5070070;28;20051;-83
2023/05/17 07:14:00;;;;;;;7.43;1.70;;;11.90;89.50;;;;;;5054658;28;20040;-82
2023/05/17 07:16:26;;;;;;;6.00;1.40;;;12.10;88.30;;;;;;5088639;28;20060;-83
2023/05/17 07:18:51;;;;;;;5.82;1.65;;;12.30;86.20;;;;;;5088884;28;20044;-82
2023/05/17 07:21:17;;;;;;;7.88;1.50;;;12.50;85.90;;;;;;5089292;28;20047;-82
2023/05/17 07:23:42;;;;;;;7.43;1.48;;;12.50;83.90;;;;;;5089147;28;20119;-84
2023/05/17 07:26:08;;;;;;;5.80;1.52;;;12.40;84.60;;;;;;5071120;28;20044;-82
2023/05/17 07:28:34;;;;;;;7.78;2.13;;;12.00;83.30;;;;;;5089343;28;20048;-81
2023/05/17 07:31:00;;;;;;;6.05;1.98;;;11.70;84.20;;;;;;5070741;28;20788;-82
2023/05/17 07:33:26;;;;;;;10.10;1.63;;;11.50;84.50;;;;;;5089422;28;20206;-81
2023/05/17 07:35:52;;;;;;;8.77;1.90;;;11.40;85.00;;;;;;5089202;28;20036;-82
2023/05/17 07:38:17;;;;;;;8.88;1.65;;;11.30;84.70;;;;;;5088563;28;20055;-81
2023/05/17 07:40:43;;;;;;;10.80;2.42;;;11.30;86.10;;;;;;5071056;28;20115;-82
2023/05/17 07:43:08;;;;;;;6.38;1.70;;;11.50;86.70;;;;;;5070558;28;20047;-82
2023/05/17 07:45:34;;;;;;;8.35;2.20;;;11.80;85.30;;;;;;5088421;28;20495;-81
2023/05/17 07:48:00;;;;;;;10.65;1.95;;;11.90;80.30;;;;;;5088109;28;20409;-82
2023/05/17 07:50:26;;;;;;;7.88;2.35;;;12.10;79.60;;;;;;5089036;28;20052;-82
2023/05/17 07:52:52;;;;;;;6.72;1.40;;;12.20;78.40;;;;;;5069678;28;20036;-81
2023/05/17 07:55:18;;;;;;;7.97;2.20;;;12.30;76.90;;;;;;5070559;28;20059;-82
2023/05/17 07:57:46;;;;;;;5.10;1.48;;;12.50;76.70;;;;;;5088739;28;20047;-82
2023/05/17 08:00:12;;;;;;;6.95;1.83;;;12.80;75.70;;;;;;5070683;28;20459;-82
2023/05/17 08:02:39;;;;;;;8.93;1.95;;;13.10;76.50;;;;;;5088613;28;20043;-82
2023/05/17 08:05:05;;;;;;;5.93;1.70;;;12.90;73.50;;;;;;5088083;28;20101;-82
2023/05/17 08:07:31;;;;;;;7.22;1.90;;;12.90;74.40;;;;;;5052431;28;20063;-82
2023/05/17 08:09:56;;;;;;;8.18;1.80;;;13.00;74.30;;;;;;5069987;28;20052;-82
2023/05/17 08:12:22;;;;;;;7.68;1.50;;;13.20;74.20;;;;;;5069935;28;20128;-81
2023/05/17 08:14:47;;;;;;;6.57;1.70;;;13.40;73.50;;;;;;5088078;28;20078;-82
2023/05/17 08:17:13;;;;;;;8.35;1.80;;;13.70;72.00;;;;;;5088031;28;20094;-81
2023/05/17 08:19:38;;;;;;;5.53;1.50;;;14.00;70.40;;;;;;5087556;28;20043;-81
2023/05/17 08:22:04;;;;;;;7.55;1.95;;;14.10;70.10;;;;;;5088170;28;20032;-81
2023/05/17 08:24:30;;;;;;;9.13;1.88;;;14.10;69.80;;;;;;5088178;28;20670;-81
2023/05/17 08:26:55;;;;;;;7.35;1.70;;;14.10;69.10;;;;;;5088112;28;20055;-83
2023/05/17 08:29:21;;;;;;;6.38;1.58;;;14.10;69.30;;;;;;5088235;28;20048;-82
2023/05/17 08:31:47;;;;;;;7.57;1.60;;;13.90;69.80;;;;;;5087988;28;20105;-82
2023/05/17 08:34:12;;;;;;;7.75;1.95;;;13.60;70.20;;;;;;5087448;28;20154;-81
2023/05/17 08:36:38;;;;;;;8.00;1.90;;;13.10;71.20;;;;;;5087836;28;20116;-81
2023/05/17 08:39:04;;;;;;;6.32;1.60;;;13.10;72.70;;;;;;5068397;28;20055;-81
2023/05/17 08:41:30;;;;;;;7.22;2.15;;;12.90;73.40;;;;;;5086549;28;20046;-82
2023/05/17 08:43:57;;;;;;;10.77;2.10;;;12.90;74.30;;;;;;5085487;28;20047;-81
2023/05/17 08:46:25;;;;;;;8.32;2.08;;;13.00;74.70;;;;;;5049494;28;20125;-81
2023/05/17 08:48:58;;;;;;;7.13;1.60;;;13.10;74.80;;;;;;5066484;28;20131;-81
2023/05/17 08:51:40;;;;;;;6.78;1.70;;;13.30;74.20;;;;;;5064076;28;20084;-81
2023/05/17 08:54:07;;;;;;;;;;;13.50;73.70;;;;;;5066562;28;20128;-81
2023/05/17 08:56:38;;;;;;;6.70;1.70;;;13.60;70.30;;;;;;5066762;28;19928;-81
2023/05/17 08:59:07;;;;;;;9.60;1.73;;;13.70;73.80;;;;;;5065735;28;20435;-81
2023/05/17 09:01:33;;;;;;;7.10;1.90;;;13.80;72.50;;;;;;5069881;28;20572;-81
2023/05/17 09:03:59;;;;;;;9.40;1.60;;;13.60;71.90;;;;;;5068619;28;20284;-81
2023/05/17 09:06:25;;;;;;;5.82;1.92;;;13.60;72.10;;;;;;5087987;28;20199;-81
2023/05/17 09:08:53;;;;;;;6.13;2.00;;;13.60;70.80;;;;;;5069072;28;20185;-81
2023/05/17 09:11:28;;;;;;;5.63;1.83;;;13.70;70.00;;;;;;5087867;28;20036;-81
2023/05/17 09:14:00;;;;;;;6.25;2.17;;;13.90;68.00;;;;;;5068691;28;20052;-81
2023/05/17 09:16:32;;;;;;;7.65;1.83;;;13.90;67.40;;;;;;5069494;28;20086;-80
2023/05/17 09:18:58;;;;;;;7.23;2.37;;;14.00;67.10;;;;;;5069795;28;20044;-81
2023/05/17 09:21:25;;;;;;;5.50;1.55;;;14.00;66.40;;;;;;5087328;28;20040;-81
2023/05/17 09:23:52;;;;;;;7.18;1.90;;;13.90;66.30;;;;;;5053138;28;20044;-81
2023/05/17 09:26:18;;;;;;;5.68;2.13;;;14.00;67.20;;;;;;5069821;28;20048;-81
2023/05/17 09:28:44;;;;;;;6.55;1.80;;;13.80;66.60;;;;;;5087298;28;20040;-80
2023/05/17 09:31:14;;;;;;;10.02;1.90;;;13.80;66.20;;;;;;5088980;28;20108;-81
2023/05/17 09:33:46;;;;;;;6.55;1.40;;;13.90;66.80;;;;;;5056562;28;20032;-81
2023/05/17 09:36:20;;;;;;;7.90;2.28;;;13.90;65.50;;;;;;5091370;28;20043;-81
2023/05/17 09:39:00;;;;;;;7.13;1.85;;;13.70;66.20;;;;;;5073484;28;20347;-81
2023/05/17 09:41:27;;;;;;;10.75;2.08;;;13.90;66.90;;;;;;5089922;28;20055;-80
2023/05/17 09:43:56;;;;;;;9.68;2.20;;;14.10;67.50;;;;;;5091400;28;20048;-81
2023/05/17 09:46:22;;;;;;;8.60;1.98;;;14.20;66.50;;;;;;5072808;28;20488;-81
2023/05/17 09:48:53;;;;;;;8.05;1.98;;;14.60;66.90;;;;;;5090553;28;20091;-78
2023/05/17 09:51:29;;;;;;;6.23;1.73;;;14.90;66.40;;;;;;5091597;28;20056;-79
2023/05/17 09:53:58;;;;;;;8.15;1.83;;;15.10;65.90;;;;;;5089993;28;20286;-78
2023/05/17 09:56:29;;;;;;;6.30;2.22;;;15.20;65.70;;;;;;5072131;28;20046;-79
2023/05/17 09:58:56;;;;;;;6.25;1.60;;;15.20;65.70;;;;;;5091015;28;20036;-79
2023/05/17 10:01:28;;;;;;;4.32;1.60;;;15.20;66.00;;;;;;5090951;28;20512;-78
2023/05/17 10:03:54;;;;;;;7.27;1.80;;;15.10;63.40;;;;;;5091113;28;20040;-78
2023/05/17 10:06:22;;;;;;;7.57;1.73;;;15.10;64.30;;;;;;5072524;28;20820;-79
2023/05/17 10:08:53;;;;;;;7.07;1.70;;;15.00;64.10;;;;;;5071538;28;20083;-79
2023/05/17 10:11:25;;;;;;;4.72;1.52;;;15.10;64.80;;;;;;5072017;28;20052;-81
2023/05/17 10:13:54;;;;;;;;;;;15.00;64.50;;;;;;5056162;28;20083;-81
2023/05/17 10:16:22;;;;;;;9.23;2.08;;;14.90;63.20;;;;;;5073164;28;20374;-81
2023/05/17 10:18:48;;;;;;;8.73;2.05;;;14.80;65.50;;;;;;5090801;28;20063;-80
2023/05/17 10:21:15;;;;;;;6.68;1.77;;;14.70;65.50;;;;;;5090130;28;20040;-81
2023/05/17 10:23:43;;;;;;;6.40;1.60;;;14.50;64.90;;;;;;5090230;28;20052;-81
2023/05/17 10:26:08;;;;;;;5.53;1.83;;;14.10;63.10;;;;;;5088220;28;20359;-81
2023/05/17 10:28:36;;;;;;;7.72;1.58;;;14.20;63.20;;;;;;5072234;28;20048;-81
2023/05/17 10:31:03;;;;;;;5.55;1.67;;;14.40;62.70;;;;;;5088249;28;20493;-81
2023/05/17 10:33:31;;;;;;;5.50;1.60;;;14.70;62.90;;;;;;5072107;28;20048;-80
2023/05/17 10:35:57;;;;;;;5.90;1.67;;;14.60;62.10;;;;;;5087455;28;20043;-81
2023/05/17 10:38:25;;;;;;;9.55;2.05;;;14.30;62.30;;;;;;5053860;28;20056;-81
2023/05/17 10:40:52;;;;;;;4.78;1.67;;;14.40;63.40;;;;;;5070647;28;20043;-83
2023/05/17 10:43:19;;;;;;;7.97;1.70;;;14.50;63.50;;;;;;5070846;28;20075;-81
2023/05/17 10:45:45;;;;;;;6.70;1.85;;;14.80;62.70;;;;;;5070728;28;20087;-81
2023/05/17 10:48:15;;;;;;;6.18;1.40;;;15.00;62.80;;;;;;5089291;28;20588;-81
2023/05/17 10:50:45;;;;;;;6.32;1.67;;;15.10;61.80;;;;;;5055186;28;20113;-81
2023/05/17 10:53:11;;;;;;;5.35;1.85;;;15.20;61.90;;;;;;5089262;28;20088;-81
2023/05/17 10:55:42;;;;;;;6.97;1.45;;;15.00;61.40;;;;;;5089897;28;20036;-81
2023/05/17 10:58:21;;;;;;;3.47;1.45;;;15.00;61.50;;;;;;5071407;28;20051;-81
2023/05/17 11:00:52;;;;;;;5.38;1.40;;;15.20;61.40;;;;;;5089859;28;20047;-80
2023/05/17 11:03:17;;;;;;;5.00;1.60;;;15.30;60.80;;;;;;5071781;28;20052;-81
2023/05/17 11:06:09;;;;;;;6.43;1.20;;;15.20;60.30;;;;;;5090130;28;20364;-81
2023/05/17 11:08:35;;;;;;;3.85;1.20;;;15.00;58.60;;;;;;5080499;28;20067;-81
2023/05/17 11:11:08;;;;;;;6.63;1.38;;;14.80;60.30;;;;;;5089956;28;20378;-81
2023/05/17 11:13:33;;;;;;;;;;;14.80;60.00;;;;;;5089114;28;20052;-81
2023/05/17 11:16:04;;;;;;;4.45;1.30;;;14.90;58.20;;;;;;5088031;28;19920;-81
2023/05/17 11:18:46;;;;;;;11.23;1.77;;;15.00;59.40;;;;;;5088400;28;20054;-81
2023/05/17 11:21:13;;;;;;;;;;;15.20;57.30;;;;;;5090039;28;20500;-82
2023/05/17 11:23:40;;;;;;;4.20;0.98;;;15.10;55.60;;;;;;5089272;28;19924;-81
2023/05/17 11:26:22;;;;;;;5.85;1.60;;;15.20;58.00;;;;;;5088794;28;20055;-81
2023/05/17 11:28:58;;;;;;;5.37;2.23;;;15.40;57.70;;;;;;5070182;28;20052;-81
2023/05/17 11:31:35;;;;;;;3.85;1.70;;;15.70;58.50;;;;;;5089215;28;20052;-81
2023/05/17 11:34:04;;;;;;;8.05;1.98;;;15.50;57.90;;;;;;5088442;28;20793;-80
2023/05/17 11:36:30;;;;;;;7.03;1.80;;;15.40;57.80;;;;;;5089150;28;20048;-81
2023/05/17 11:39:10;;;;;;;5.00;1.30;;;15.20;58.70;;;;;;5053332;28;20048;-81
2023/05/17 11:41:40;;;;;;;4.20;1.10;;;15.00;56.70;;;;;;5088957;28;20139;-81
2023/05/17 11:44:07;;;;;;;3.03;1.08;;;15.20;59.10;;;;;;5089436;28;20054;-82
2023/05/17 11:46:33;;;;;;;8.10;2.05;;;15.30;58.60;;;;;;5088549;28;20044;-81
2023/05/17 11:49:00;;;;;;;3.63;1.35;;;15.30;58.30;;;;;;5070493;28;20048;-82
2023/05/17 11:51:26;;;;;;;5.15;1.73;;;15.30;58.00;;;;;;5089149;28;20105;-81
2023/05/17 11:53:55;;;;;;;4.32;1.50;;;15.20;57.40;;;;;;5068603;28;20051;-82
2023/05/17 11:56:23;;;;;;;5.03;1.63;;;15.20;58.40;;;;;;5070179;28;20063;-81
2023/05/17 11:58:52;;;;;;;6.50;1.67;;;15.40;58.30;;;;;;5088881;28;20051;-82
2023/05/17 12:01:18;;;;;;;4.60;1.50;;;15.50;58.10;;;;;;5087796;28;20127;-82
2023/05/17 12:03:46;;;;;;;6.40;1.70;;;15.60;58.20;;;;;;5053733;28;20485;-85
2023/05/17 12:06:14;;;;;;;5.07;1.55;;;15.50;58.00;;;;;;5070501;28;20444;-81
2023/05/17 12:08:43;;;;;;;3.70;1.45;;;15.50;57.60;;;;;;5069513;28;20482;-81
2023/05/17 12:11:11;;;;;;;3.83;1.60;;;15.60;57.50;;;;;;5088075;28;20047;-81
2023/05/17 12:13:40;;;;;;;7.15;1.40;;;15.80;57.60;;;;;;5054039;28;20086;-81
2023/05/17 12:16:11;;;;;;;6.85;1.65;;;16.00;56.70;;;;;;5088003;28;20059;-81
2023/05/17 12:18:40;;;;;;;9.90;2.10;;;16.10;56.20;;;;;;5088161;28;20119;-82
2023/05/17 12:21:08;;;;;;;6.43;1.73;;;16.10;57.00;;;;;;5088314;28;20498;-82
2023/05/17 12:23:39;;;;;;;4.35;1.20;;;16.00;57.60;;;;;;5088381;28;20467;-81
2023/05/17 12:26:13;;;;;;;2.78;1.25;;;15.60;57.80;;;;;;5088479;28;20087;-81
2023/05/17 12:28:40;;;;;;;4.15;1.20;;;15.30;57.10;;;;;;5069411;28;20087;-82
2023/05/17 12:31:11;;;;;;;6.43;1.98;;;15.50;57.70;;;;;;5087574;28;20097;-81
2023/05/17 12:33:40;;;;;;;5.93;1.40;;;15.80;57.60;;;;;;5077554;28;20119;-80
2023/05/17 12:36:07;;;;;;;6.45;1.70;;;16.00;57.20;;;;;;5087035;28;20080;-80
2023/05/17 12:38:34;;;;;;;3.05;1.30;;;15.80;56.80;;;;;;5088084;28;20050;-81
2023/05/17 12:41:01;;;;;;;5.00;1.60;;;15.50;56.90;;;;;;5069589;28;20120;-81
2023/05/17 12:43:28;;;;;;;5.05;1.70;;;15.50;58.70;;;;;;5070141;28;20082;-80
2023/05/17 12:46:01;;;;;;;7.43;1.90;;;15.50;58.10;;;;;;5087105;28;20410;-80
2023/05/17 12:48:26;;;;;;;;;;;15.50;58.00;;;;;;5066481;28;20072;-81
2023/05/17 12:50:54;;;;;;;5.45;1.17;;;15.40;57.30;;;;;;5068064;28;19921;-80